• Join FlightAware (Why Join?)
  • Login
  • US Flag 
06:45AM EDT


 

Airport Tracker/Info


-or-


 

Live Flight TrackerFlight Track Log ✈ AFR6042 ✈ 07-May-2013 ✈ LFPO / ORY - LFML / MRS

Flight Track Log - Related Links

Times and Time Zones

All times are in EDT time to prevent confusion due to time zone crossing. See the AFR6042 flight status page for this flight to view local times or setup timezone preferences in your user account.

Time Position Orientation Groundspeed Altitude Reporting Facility
EDT Latitude Longitude Course Direction KTS MPH feet Rate Location/Type
01:02PM 47.7680 2.9213 158° South  Level Estimated
01:03PM 47.6995 2.9607 159° South  Level Estimated
01:04PM 47.6310 2.9999 159° South  Level Estimated
01:05PM 47.5625 3.0390 159° South  Level Estimated
01:06PM 47.4940 3.0781 159° South  Level Estimated
01:07PM 47.4255 3.1170 159° South  Level Estimated
01:08PM 47.3569 3.1558 159° South  Level Estimated
01:09PM 47.2883 3.1946 159° South  Level Estimated
01:10PM 47.2198 3.2332 159° South  Level Estimated
01:11PM 47.1512 3.2717 159° South  Level Estimated
01:12PM 47.0826 3.3101 159° South  Level Estimated
01:13PM 47.0140 3.3485 159° South  Level Estimated
01:14PM 46.9454 3.3867 159° South  Level Estimated
01:15PM 46.8767 3.4248 159° South  Level Estimated
01:16PM 46.8081 3.4629 159° South  Level Estimated
01:17PM 46.7394 3.5008 159° South  Level Estimated
01:18PM 46.6707 3.5387 159° South  Level Estimated
01:19PM 46.6020 3.5764 159° South  Level Estimated
01:20PM 46.5333 3.6141 159° South  Level Estimated
01:21PM 46.4466 3.6614 159° South  Level Estimated
01:22PM 46.3598 3.7087 159° South  Level Estimated
01:23PM 46.2731 3.7558 159° South  Level Estimated
01:24PM 46.1863 3.8027 159° South  Level Estimated
01:25PM 46.0994 3.8495 160° South  Level Estimated
01:26PM 46.0126 3.8962 160° South  Level Estimated
01:27PM 45.9258 3.9427 160° South  Level Estimated
01:28PM 45.8389 3.9890 160° South  Level Estimated
01:29PM 45.7520 4.0352 160° South  Level Estimated
01:30PM 45.6651 4.0813 160° South  Level Estimated
01:31PM 45.5782 4.1272 160° South  Level Estimated
01:32PM 45.4912 4.1730 160° South  Level Estimated
01:33PM 45.4043 4.2186 160° South  Level Estimated
01:34PM 45.3173 4.2641 160° South  Level Estimated
01:35PM 45.2303 4.3095 160° South  Level Estimated
01:36PM 45.1433 4.3547 160° South  Level Estimated
01:37PM 45.0562 4.3998 160° South  Level Estimated
01:38PM 44.9692 4.4448 160° South  Level Estimated
01:39PM 44.8821 4.4896 160° South  Level Estimated
01:40PM 44.7950 4.5342 160° South  Level Estimated
01:41PM 44.7079 4.5788 160° South  Level Estimated
01:42PM 44.6208 4.6232 160° South  Level Estimated
01:43PM 44.5336 4.6675 160° South  Level Estimated
01:44PM 44.4465 4.7116 160° South  Level Estimated
01:45PM 44.3593 4.7556 160° South  Level Estimated
01:46PM 44.2721 4.7995 160° South  Level Estimated
01:47PM 44.1849 4.8432 160° South  Level Estimated
01:48PM 44.0977 4.8869 160° South  Level Estimated
01:49PM 44.0104 4.9304 160° South  Level Estimated
01:50PM 43.9232 4.9737 160° South  Level Estimated
01:51PM 43.8314 5.0192 160° South  Level Estimated
01:52PM 43.7396 5.0645 160° South  Level Estimated
01:53PM 43.6478 5.1097 160° South  Level Estimated
01:54PM 43.5559 5.1548 160° South  Level Estimated
01:55PM 43.4641 5.1997 160° South  Level Estimated
01:56PM 43.4356 5.2136 160° South  Level Estimated
01:57PM 43.4356 5.2136 172° South  Level Estimated
01:58PM 43.4356 5.2136 172° South  Level Estimated